createdAt,value
2022-08-02T00:00:35.070Z,99.90
2022-08-02T00:03:03.070Z,99.90
2022-08-02T00:05:32.401Z,99.90
2022-08-02T00:08:00.328Z,99.90
2022-08-02T00:10:28.673Z,99.90
2022-08-02T00:12:58.703Z,99.90
2022-08-02T00:15:26.760Z,99.90
2022-08-02T00:17:54.707Z,99.90
2022-08-02T00:20:22.733Z,99.90
2022-08-02T00:22:52.145Z,99.90
2022-08-02T00:25:20.143Z,99.90
2022-08-02T00:27:48.066Z,99.90
2022-08-02T00:30:16.047Z,99.90
2022-08-02T00:32:43.986Z,99.90
2022-08-02T00:35:11.987Z,99.90
2022-08-02T00:37:41.316Z,99.90
2022-08-02T00:40:12.271Z,99.90
2022-08-02T00:42:40.713Z,99.90
2022-08-02T00:45:09.686Z,99.90
2022-08-02T00:47:37.669Z,99.90
2022-08-02T00:50:06.413Z,99.90
2022-08-02T00:52:34.424Z,99.90
2022-08-02T00:55:02.479Z,99.90
2022-08-02T00:57:31.737Z,99.90
2022-08-02T00:59:59.725Z,99.90
2022-08-02T01:02:27.710Z,99.90
2022-08-02T01:04:55.678Z,99.90
2022-08-02T01:07:23.735Z,99.90
2022-08-02T01:09:51.695Z,99.90
2022-08-02T01:12:19.695Z,99.90
2022-08-02T01:14:51.232Z,99.90
2022-08-02T01:17:24.861Z,99.90
2022-08-02T01:20:04.652Z,99.90
2022-08-02T01:23:03.579Z,99.90
2022-08-02T01:25:51.309Z,99.90
2022-08-02T01:28:32.594Z,99.90
2022-08-02T01:31:05.476Z,99.90
2022-08-02T01:33:40.866Z,99.90
2022-08-02T01:36:12.740Z,99.90
2022-08-02T01:38:43.839Z,99.90
2022-08-02T01:41:17.463Z,99.90
2022-08-02T01:43:49.000Z,99.90
2022-08-02T01:46:18.685Z,99.90
2022-08-02T01:48:48.590Z,99.90
2022-08-02T01:51:19.650Z,99.90
2022-08-02T01:53:51.020Z,99.90
2022-08-02T01:56:20.599Z,99.90
2022-08-02T01:58:50.876Z,99.90
2022-08-02T02:01:20.620Z,99.90
2022-08-02T02:03:49.972Z,99.90
2022-08-02T02:06:19.328Z,99.90
2022-08-02T02:08:48.461Z,99.90
2022-08-02T02:12:05.156Z,99.90
2022-08-02T02:14:08.871Z,99.90
2022-08-02T02:16:38.298Z,99.90
2022-08-02T02:19:08.160Z,99.90
2022-08-02T02:21:36.568Z,99.90
2022-08-02T02:24:05.933Z,99.90
2022-08-02T02:26:42.925Z,99.90
2022-08-02T02:29:23.374Z,99.90
2022-08-02T02:31:54.954Z,99.90
2022-08-02T02:34:27.735Z,99.90
2022-08-02T02:36:59.200Z,99.90
2022-08-02T02:39:29.497Z,99.90
2022-08-02T02:42:03.144Z,99.90
2022-08-02T02:44:33.136Z,99.90
2022-08-02T02:47:02.353Z,99.90
2022-08-02T02:49:34.078Z,99.90
2022-08-02T02:52:03.848Z,99.90
2022-08-02T02:54:35.422Z,99.90
2022-08-02T02:57:05.408Z,99.90
2022-08-02T02:59:36.468Z,99.90
2022-08-02T03:02:12.383Z,99.90
2022-08-02T03:04:57.042Z,99.90
2022-08-02T03:07:26.981Z,99.90
2022-08-02T03:09:55.445Z,99.90
2022-08-02T03:12:31.985Z,99.90
2022-08-02T03:15:04.042Z,99.90
2022-08-02T03:17:45.709Z,99.90
2022-08-02T03:20:15.386Z,99.90
2022-08-02T03:22:44.082Z,99.90
2022-08-02T03:25:13.004Z,99.90
2022-08-02T03:27:41.760Z,99.90
2022-08-02T03:30:13.545Z,99.90
2022-08-02T03:32:44.588Z,99.90
2022-08-02T03:35:18.582Z,99.90
2022-08-02T03:37:53.145Z,99.90
2022-08-02T03:40:21.846Z,99.90
2022-08-02T03:42:51.328Z,99.90
2022-08-02T03:45:21.642Z,99.90
2022-08-02T03:47:49.934Z,99.90
2022-08-02T03:50:18.319Z,99.90
2022-08-02T03:52:47.491Z,99.90
2022-08-02T03:55:15.814Z,99.90
2022-08-02T03:57:44.363Z,99.90
2022-08-02T04:00:18.416Z,99.90
2022-08-02T04:02:47.757Z,99.90
2022-08-02T04:05:15.843Z,99.90
2022-08-02T04:08:33.018Z,99.90
2022-08-02T04:10:52.723Z,99.90
2022-08-02T04:13:23.333Z,99.90
2022-08-02T04:15:54.848Z,99.90
2022-08-02T04:18:30.509Z,99.90
2022-08-02T04:21:01.026Z,99.90
2022-08-02T04:23:32.553Z,99.90
2022-08-02T04:26:02.937Z,99.90
2022-08-02T04:28:33.491Z,99.90
2022-08-02T04:31:02.159Z,99.90
2022-08-02T04:33:32.873Z,99.90
2022-08-02T04:36:01.246Z,99.90
2022-08-02T04:38:29.384Z,99.90
2022-08-02T04:40:57.439Z,99.90
2022-08-02T04:43:25.920Z,99.90
2022-08-02T04:45:55.673Z,99.90
2022-08-02T04:48:24.239Z,99.90
2022-08-02T04:50:53.626Z,99.90
2022-08-02T04:53:21.686Z,99.90
2022-08-02T04:55:49.728Z,99.90
2022-08-02T04:58:39.583Z,99.90
2022-08-02T05:01:05.841Z,99.90
2022-08-02T05:03:33.820Z,99.90
2022-08-02T05:06:03.516Z,99.90
2022-08-02T05:08:46.624Z,99.90
2022-08-02T05:11:21.079Z,99.90
2022-08-02T05:13:57.932Z,99.90
2022-08-02T05:16:31.114Z,99.90
2022-08-02T05:18:59.980Z,99.90
2022-08-02T05:21:29.250Z,99.90
2022-08-02T05:23:57.226Z,99.90
2022-08-02T05:26:25.232Z,99.90
2022-08-02T05:28:53.188Z,99.90
2022-08-02T05:31:21.148Z,99.90
2022-08-02T05:33:49.093Z,99.90
2022-08-02T05:36:17.272Z,99.90
2022-08-02T05:38:49.850Z,99.90
2022-08-02T05:41:19.010Z,99.90
2022-08-02T05:43:47.146Z,99.90
2022-08-02T05:46:15.135Z,99.90
2022-08-02T05:48:44.887Z,99.90
2022-08-02T05:51:25.096Z,99.90
2022-08-02T05:54:00.761Z,99.90
2022-08-02T05:56:34.471Z,99.90
2022-08-02T05:59:05.575Z,99.90
2022-08-02T06:01:36.661Z,99.90
2022-08-02T06:04:07.598Z,99.90
2022-08-02T06:06:36.376Z,99.90
2022-08-02T06:09:10.682Z,99.90
2022-08-02T06:11:42.800Z,99.90
2022-08-02T06:14:32.368Z,99.90
2022-08-02T06:17:01.892Z,99.90
2022-08-02T06:19:36.468Z,99.90
2022-08-02T06:22:40.270Z,99.90
2022-08-02T06:25:11.853Z,99.90
2022-08-02T06:27:59.105Z,99.90
2022-08-02T06:30:27.689Z,99.90
2022-08-02T06:32:55.843Z,99.90
2022-08-02T06:35:26.100Z,99.90
2022-08-02T06:38:00.263Z,99.90
2022-08-02T06:40:33.779Z,99.90
2022-08-02T06:43:13.131Z,99.90
2022-08-02T06:45:42.026Z,99.90
2022-08-02T06:48:10.811Z,99.90
2022-08-02T06:50:39.703Z,99.90
2022-08-02T06:53:08.317Z,99.90
2022-08-02T06:55:43.519Z,99.90
2022-08-02T06:58:12.688Z,99.90
2022-08-02T07:00:40.937Z,99.90
2022-08-02T07:03:08.919Z,99.90
2022-08-02T07:05:36.925Z,99.90
2022-08-02T07:08:05.688Z,99.90
2022-08-02T07:10:33.629Z,99.90
2022-08-02T07:13:03.442Z,99.90
2022-08-02T07:15:31.510Z,99.90
2022-08-02T07:17:59.494Z,99.90
2022-08-02T07:20:27.611Z,99.90
2022-08-02T07:22:55.635Z,99.90
2022-08-02T07:25:23.919Z,99.90
2022-08-02T07:27:51.933Z,99.90
2022-08-02T07:30:21.372Z,99.90
2022-08-02T07:32:49.932Z,99.90
2022-08-02T07:35:19.228Z,99.90
2022-08-02T07:37:55.078Z,99.90
2022-08-02T07:40:27.264Z,99.90
2022-08-02T07:43:03.073Z,99.90
2022-08-02T07:45:35.862Z,99.90
2022-08-02T07:48:04.801Z,99.90
2022-08-02T07:50:32.763Z,99.90
2022-08-02T07:53:02.401Z,99.90
2022-08-02T07:55:33.337Z,99.90
2022-08-02T07:58:11.066Z,99.90
2022-08-02T08:00:43.985Z,99.90
2022-08-02T08:03:12.631Z,99.90
2022-08-02T08:05:40.833Z,99.90
2022-08-02T08:08:13.638Z,99.90
2022-08-02T08:10:43.354Z,99.90
2022-08-02T08:13:11.291Z,99.90
2022-08-02T08:15:39.232Z,99.90
2022-08-02T08:18:09.007Z,99.90
2022-08-02T08:20:39.626Z,99.90
2022-08-02T08:23:07.595Z,99.90
2022-08-02T08:25:39.722Z,99.90
2022-08-02T08:28:09.506Z,99.90
2022-08-02T08:30:37.599Z,99.90
2022-08-02T08:33:05.537Z,99.90
2022-08-02T08:35:35.533Z,99.90
2022-08-02T08:38:07.399Z,99.90
2022-08-02T08:40:37.112Z,99.90
2022-08-02T08:43:06.010Z,99.90
2022-08-02T08:45:34.108Z,99.90
2022-08-02T08:48:07.426Z,99.90
2022-08-02T08:50:39.004Z,99.90
2022-08-02T08:53:09.062Z,99.90
2022-08-02T08:55:40.558Z,99.90
2022-08-02T08:58:08.618Z,99.90
2022-08-02T09:00:37.482Z,99.90
2022-08-02T09:03:07.066Z,99.90
2022-08-02T09:05:38.202Z,99.90
2022-08-02T09:08:07.468Z,99.90
2022-08-02T09:10:41.200Z,99.90
2022-08-02T09:13:37.559Z,99.90
2022-08-02T09:16:12.690Z,99.90
2022-08-02T09:18:44.485Z,99.90
2022-08-02T09:21:15.182Z,99.90
2022-08-02T09:23:45.492Z,99.90
2022-08-02T09:26:15.048Z,99.90
2022-08-02T09:28:47.463Z,99.90
2022-08-02T09:31:18.121Z,99.90
2022-08-02T09:33:51.719Z,99.90
2022-08-02T09:36:21.583Z,99.90
2022-08-02T09:38:59.282Z,99.90
2022-08-02T09:41:29.036Z,99.90
2022-08-02T09:44:05.310Z,99.90
2022-08-02T09:46:38.475Z,99.90
2022-08-02T09:49:09.276Z,99.90
2022-08-02T09:51:40.360Z,99.90
2022-08-02T09:54:09.958Z,99.90
2022-08-02T09:56:44.174Z,99.90
2022-08-02T09:59:13.338Z,99.90
2022-08-02T10:01:45.129Z,99.90
2022-08-02T10:04:22.586Z,99.90
2022-08-02T10:06:54.941Z,99.90
2022-08-02T10:09:23.805Z,99.90
2022-08-02T10:11:53.025Z,99.90
2022-08-02T10:14:23.499Z,99.90
2022-08-02T10:16:51.792Z,99.90
2022-08-02T10:20:00.561Z,99.90
2022-08-02T10:22:12.612Z,99.90
2022-08-02T10:24:48.237Z,99.50
2022-08-02T10:27:19.755Z,98.60
2022-08-02T10:29:54.762Z,98.90
2022-08-02T10:32:28.204Z,98.60
2022-08-02T10:35:18.734Z,97.90
2022-08-02T10:37:51.612Z,98.40
2022-08-02T10:40:26.678Z,98.70
2022-08-02T10:42:59.289Z,99.20
2022-08-02T10:45:28.688Z,99.70
2022-08-02T10:48:04.496Z,97.80
2022-08-02T10:50:53.964Z,97.70
2022-08-02T10:53:28.230Z,98.10
2022-08-02T10:55:58.011Z,98.30
2022-08-02T10:58:30.089Z,97.80
2022-08-02T11:00:59.397Z,98.10
2022-08-02T11:03:40.213Z,98.90
2022-08-02T11:06:25.074Z,98.80
2022-08-02T11:09:32.246Z,98.60
2022-08-02T11:12:03.484Z,98.40
2022-08-02T11:14:32.210Z,98.20
2022-08-02T11:17:14.273Z,97.70
2022-08-02T11:20:19.269Z,96.80
2022-08-02T11:22:51.330Z,97.70
2022-08-02T11:25:54.687Z,97.50
2022-08-02T11:28:25.363Z,97.10
2022-08-02T11:31:03.161Z,96.70
2022-08-02T11:33:39.514Z,96.70
2022-08-02T11:36:08.504Z,95.60
2022-08-02T11:38:36.776Z,94.90
2022-08-02T11:41:10.308Z,95.10
2022-08-02T11:43:39.691Z,94.90
2022-08-02T11:46:14.966Z,95.60
2022-08-02T11:48:44.603Z,94.70
2022-08-02T11:51:14.040Z,93.70
2022-08-02T11:53:49.783Z,94.00
2022-08-02T11:56:24.898Z,94.50
2022-08-02T11:59:07.176Z,94.20
2022-08-02T12:01:44.859Z,93.10
2022-08-02T12:04:18.399Z,93.70
2022-08-02T12:06:56.209Z,93.20
2022-08-02T12:09:26.130Z,94.40
2022-08-02T12:11:56.632Z,95.10
2022-08-02T12:14:25.497Z,94.60
2022-08-02T12:17:11.308Z,95.10
2022-08-02T12:19:42.178Z,95.80
2022-08-02T12:22:13.888Z,95.00
2022-08-02T12:24:44.047Z,94.80
2022-08-02T12:27:29.851Z,95.10
2022-08-02T12:30:03.480Z,95.60
2022-08-02T12:32:31.656Z,95.40
2022-08-02T12:35:11.876Z,96.00
2022-08-02T12:37:41.508Z,94.70
2022-08-02T12:40:25.657Z,94.30
2022-08-02T12:42:57.399Z,93.80
2022-08-02T12:45:25.965Z,93.80
2022-08-02T12:47:56.398Z,93.10
2022-08-02T12:50:27.410Z,93.20
2022-08-02T12:53:05.431Z,93.10
2022-08-02T12:56:00.453Z,92.70
2022-08-02T12:58:27.864Z,92.90
2022-08-02T13:00:58.202Z,92.20
2022-08-02T13:04:10.899Z,92.10
2022-08-02T13:06:41.999Z,93.00
2022-08-02T13:09:02.930Z,92.20
2022-08-02T13:11:30.890Z,92.10
2022-08-02T13:14:00.206Z,92.10
2022-08-02T13:16:30.824Z,92.20
2022-08-02T13:19:00.108Z,92.00
2022-08-02T13:21:40.854Z,91.90
2022-08-02T13:24:27.370Z,91.90
2022-08-02T13:27:08.215Z,91.10
2022-08-02T13:29:38.406Z,90.70
2022-08-02T13:32:06.824Z,90.50
2022-08-02T13:34:34.873Z,90.20
2022-08-02T13:37:03.587Z,90.10
2022-08-02T13:39:31.551Z,90.50
2022-08-02T13:42:00.133Z,90.60
2022-08-02T13:44:28.125Z,90.70
2022-08-02T13:46:57.533Z,90.70
2022-08-02T13:49:51.585Z,90.40
2022-08-02T13:52:14.524Z,90.30
2022-08-02T13:54:42.785Z,89.60
2022-08-02T13:57:10.789Z,90.00
2022-08-02T13:59:56.626Z,90.10
2022-08-02T14:02:28.733Z,90.10
2022-08-02T14:04:57.364Z,90.60
2022-08-02T14:07:25.333Z,90.80
2022-08-02T14:09:53.273Z,90.70
2022-08-02T14:12:21.656Z,89.70
2022-08-02T14:14:49.845Z,90.10
2022-08-02T14:17:18.802Z,90.00
2022-08-02T14:19:48.279Z,90.00
2022-08-02T14:22:16.218Z,90.10
2022-08-02T14:24:44.794Z,90.60
2022-08-02T14:27:13.450Z,90.90
2022-08-02T14:29:41.462Z,90.00
2022-08-02T14:32:10.256Z,89.10
2022-08-02T14:34:38.579Z,89.60
2022-08-02T14:37:08.010Z,89.20
2022-08-02T14:39:43.537Z,90.00
2022-08-02T14:42:23.985Z,90.10
2022-08-02T14:44:52.017Z,90.10
2022-08-02T14:47:20.182Z,90.30
2022-08-02T14:49:50.311Z,89.80
2022-08-02T14:52:20.588Z,89.20
2022-08-02T14:54:48.748Z,89.10
2022-08-02T14:57:17.335Z,88.50
2022-08-02T14:59:45.459Z,88.00
2022-08-02T15:02:14.187Z,88.80
2022-08-02T15:04:43.800Z,87.30
2022-08-02T15:07:12.998Z,84.90
2022-08-02T15:09:42.424Z,84.60
2022-08-02T15:12:11.769Z,82.60
2022-08-02T15:14:40.351Z,81.70
2022-08-02T15:17:08.957Z,80.00
2022-08-02T15:19:57.651Z,79.30
2022-08-02T15:22:24.893Z,79.00
2022-08-02T15:24:54.668Z,77.80
2022-08-02T15:27:22.629Z,76.50
2022-08-02T15:29:50.889Z,77.30
2022-08-02T15:32:19.707Z,77.90
2022-08-02T15:34:48.520Z,76.10
2022-08-02T15:37:16.568Z,75.30
2022-08-02T15:39:44.583Z,74.70
2022-08-02T15:42:14.347Z,71.50
2022-08-02T15:44:42.501Z,70.40
2022-08-02T15:47:10.587Z,72.30
2022-08-02T15:49:41.528Z,71.70
2022-08-02T15:52:10.891Z,70.70
2022-08-02T15:54:39.260Z,71.50
2022-08-02T15:57:07.351Z,71.40
2022-08-02T15:59:36.752Z,70.90
2022-08-02T16:02:06.690Z,71.90
2022-08-02T16:04:34.831Z,72.20
2022-08-02T16:07:02.790Z,71.00
2022-08-02T16:09:30.744Z,70.30
2022-08-02T16:11:58.761Z,70.90
2022-08-02T16:14:26.807Z,70.60
2022-08-02T16:16:57.006Z,68.90
2022-08-02T16:19:37.550Z,68.90
2022-08-02T16:22:13.240Z,68.70
2022-08-02T16:24:42.060Z,67.60
2022-08-02T16:27:10.033Z,67.60
2022-08-02T16:29:38.313Z,67.60
2022-08-02T16:32:08.015Z,66.80
2022-08-02T16:34:57.143Z,65.70
2022-08-02T16:37:25.118Z,65.70
2022-08-02T16:39:53.134Z,65.80
2022-08-02T16:42:25.076Z,65.30
2022-08-02T16:44:54.874Z,66.40
2022-08-02T16:47:42.855Z,65.10
2022-08-02T16:50:12.365Z,65.50
2022-08-02T16:52:40.600Z,65.20
2022-08-02T16:55:11.236Z,65.10
2022-08-02T16:57:43.352Z,65.20
2022-08-02T17:00:15.517Z,64.80
2022-08-02T17:02:47.072Z,64.70
2022-08-02T17:05:15.503Z,63.60
2022-08-02T17:08:07.529Z,63.80
2022-08-02T17:10:33.503Z,63.40
2022-08-02T17:13:11.253Z,62.60
2022-08-02T17:16:17.232Z,62.20
2022-08-02T17:18:29.793Z,61.90
2022-08-02T17:20:58.024Z,62.70
2022-08-02T17:24:04.268Z,62.60
2022-08-02T17:26:14.478Z,63.20
2022-08-02T17:31:42.945Z,62.20
2022-08-02T17:34:14.066Z,62.50
2022-08-02T17:36:44.893Z,61.20
2022-08-02T17:39:17.822Z,60.20
2022-08-02T17:41:49.182Z,60.30
2022-08-02T17:44:37.080Z,60.70
2022-08-02T17:47:10.126Z,61.10
2022-08-02T17:49:44.222Z,65.80
2022-08-02T17:52:52.174Z,67.40
2022-08-02T17:55:12.895Z,68.50
2022-08-02T17:57:58.774Z,69.80
2022-08-02T18:00:33.866Z,71.10
2022-08-02T18:03:05.662Z,71.60
2022-08-02T18:05:41.627Z,72.10
2022-08-02T18:08:22.903Z,72.70
2022-08-02T18:10:52.337Z,72.40
2022-08-02T18:13:20.519Z,73.50
2022-08-02T18:15:48.719Z,73.90
2022-08-02T18:18:19.242Z,74.10
2022-08-02T18:21:22.112Z,74.10
2022-08-02T18:23:49.590Z,73.60
2022-08-02T18:26:27.366Z,73.60
2022-08-02T18:28:55.474Z,74.00
2022-08-02T18:31:24.956Z,73.40
2022-08-02T18:33:58.091Z,73.60
2022-08-02T18:36:32.271Z,74.00
2022-08-02T18:39:07.787Z,73.90
2022-08-02T18:41:36.783Z,75.60
2022-08-02T18:44:06.510Z,74.50
2022-08-02T18:46:34.578Z,74.40
2022-08-02T18:49:06.833Z,74.00
2022-08-02T18:51:44.636Z,73.70
2022-08-02T18:54:12.785Z,73.10
2022-08-02T18:56:40.904Z,72.90
2022-08-02T18:59:15.819Z,72.90
2022-08-02T19:01:51.142Z,72.80
2022-08-02T19:04:26.924Z,74.20
2022-08-02T19:07:07.160Z,74.00
2022-08-02T19:09:40.110Z,74.40
2022-08-02T19:12:11.328Z,75.10
2022-08-02T19:14:39.913Z,76.50
2022-08-02T19:17:54.025Z,77.00
2022-08-02T19:19:56.115Z,78.10
2022-08-02T19:22:25.617Z,78.80
2022-08-02T19:24:59.929Z,78.60
2022-08-02T19:27:32.735Z,78.80
2022-08-02T19:30:02.619Z,79.30
2022-08-02T19:32:40.688Z,79.30
2022-08-02T19:35:24.142Z,79.90
2022-08-02T19:38:07.791Z,80.70
2022-08-02T19:40:37.327Z,81.10
2022-08-02T19:44:24.725Z,81.10
2022-08-02T19:45:57.002Z,81.30
2022-08-02T19:48:27.097Z,82.30
2022-08-02T19:51:01.528Z,82.30
2022-08-02T19:53:47.599Z,82.60
2022-08-02T19:56:20.183Z,82.20
2022-08-02T19:58:48.835Z,82.50
2022-08-02T20:01:19.378Z,82.40
2022-08-02T20:03:53.035Z,82.40
2022-08-02T20:06:29.660Z,83.40
2022-08-02T20:09:01.237Z,83.60
2022-08-02T20:11:34.664Z,83.60
2022-08-02T20:14:04.621Z,83.60
2022-08-02T20:16:33.265Z,83.80
2022-08-02T20:19:02.870Z,83.80
2022-08-02T20:21:35.824Z,83.70
2022-08-02T20:24:09.256Z,83.40
2022-08-02T20:26:47.443Z,83.60
2022-08-02T20:29:42.530Z,83.00
2022-08-02T20:32:04.883Z,82.80
2022-08-02T20:34:33.583Z,83.00
2022-08-02T20:38:01.054Z,83.60
2022-08-02T20:39:53.950Z,83.30
2022-08-02T20:42:23.957Z,83.50
2022-08-02T20:44:54.553Z,83.90
2022-08-02T20:47:27.822Z,83.70
2022-08-02T20:50:31.877Z,84.40
2022-08-02T20:53:00.499Z,85.50
2022-08-02T20:55:31.264Z,85.90
2022-08-02T20:58:01.879Z,86.50
2022-08-02T21:00:31.590Z,87.30
2022-08-02T21:02:59.910Z,87.20
2022-08-02T21:05:54.100Z,87.60
2022-08-02T21:08:16.142Z,87.50
2022-08-02T21:10:52.056Z,88.10
2022-08-02T21:13:23.944Z,88.60
2022-08-02T21:15:53.452Z,89.40
2022-08-02T21:18:27.697Z,89.90
2022-08-02T21:21:04.917Z,90.30
2022-08-02T21:23:36.615Z,90.40
2022-08-02T21:26:09.072Z,90.70
2022-08-02T21:28:44.869Z,90.70
2022-08-02T21:31:15.272Z,90.90
2022-08-02T21:33:56.692Z,91.10
2022-08-02T21:36:31.933Z,91.50
2022-08-02T21:39:05.150Z,91.50
2022-08-02T21:41:40.039Z,91.60
2022-08-02T21:44:16.353Z,91.90
2022-08-02T21:46:45.591Z,91.80
2022-08-02T21:49:14.336Z,92.20
2022-08-02T21:51:43.652Z,92.00
2022-08-02T21:54:19.865Z,92.30
2022-08-02T21:56:51.816Z,92.40
2022-08-02T21:59:25.733Z,92.50
2022-08-02T22:01:54.932Z,92.60
2022-08-02T22:04:25.243Z,92.70
2022-08-02T22:06:54.938Z,92.80
2022-08-02T22:09:44.147Z,92.90
2022-08-02T22:12:17.813Z,92.90
2022-08-02T22:14:49.678Z,93.00
2022-08-02T22:17:21.670Z,93.10
2022-08-02T22:20:12.545Z,93.20
2022-08-02T22:22:41.570Z,93.40
2022-08-02T22:25:26.514Z,93.60
2022-08-02T22:28:36.533Z,93.60
2022-08-02T22:30:52.554Z,93.80
2022-08-02T22:33:38.698Z,93.90
2022-08-02T22:36:11.583Z,94.00
2022-08-02T22:38:44.596Z,94.10
2022-08-02T22:41:13.586Z,94.20
2022-08-02T22:43:43.594Z,94.30
2022-08-02T22:46:15.682Z,94.40
2022-08-02T22:48:45.493Z,94.50
2022-08-02T22:51:14.314Z,94.60
2022-08-02T22:53:43.399Z,94.60
2022-08-02T22:56:12.145Z,94.70
2022-08-02T22:59:11.854Z,94.90
2022-08-02T23:01:29.937Z,95.10
2022-08-02T23:03:57.944Z,95.20
2022-08-02T23:06:25.874Z,95.40
2022-08-02T23:08:53.807Z,95.40
2022-08-02T23:11:23.108Z,96.00
2022-08-02T23:13:52.368Z,95.70
2022-08-02T23:16:38.837Z,95.80
2022-08-02T23:19:24.188Z,95.80
2022-08-02T23:22:02.062Z,95.90
2022-08-02T23:24:32.987Z,96.00
2022-08-02T23:27:01.383Z,96.00
2022-08-02T23:29:30.730Z,95.90
2022-08-02T23:31:59.032Z,96.00
2022-08-02T23:34:27.372Z,96.10
2022-08-02T23:36:55.477Z,96.10
2022-08-02T23:39:23.710Z,96.30
2022-08-02T23:41:55.106Z,96.30
2022-08-02T23:44:23.712Z,96.30
2022-08-02T23:46:54.071Z,96.40
2022-08-02T23:49:23.202Z,96.60
2022-08-02T23:51:51.962Z,96.70
2022-08-02T23:54:20.455Z,96.80
2022-08-02T23:56:48.483Z,96.90
2022-08-02T23:59:16.931Z,96.90
